Time;durP1;ratioP1;P1;durP2;ratioP2;P2;SDS_P1;SDS_P2;PMS_P1;PMS_P2;Temp;Humidity;BMP_temperature;BMP_pressure;BME280_temperature;BME280_humidity;BME280_pressure;Samples;Min_cycle;Max_cycle;Signal;HPM_P1;HPM_P2
2023/11/11 00:03:05;;;;;;;20.10;13.10;;;;;;;10.12;74.31;97644.13;234201;216;150722;-57
2023/11/11 00:08:08;;;;;;;21.70;13.80;;;;;;;10.20;74.22;97638.29;234245;216;142346;-59
2023/11/11 00:13:14;;;;;;;21.30;14.40;;;;;;;10.23;73.78;97644.79;234261;214;139304;-58
2023/11/11 00:18:18;;;;;;;23.70;15.40;;;;;;;10.19;73.89;97640.65;234222;216;150374;-59
2023/11/11 00:23:21;;;;;;;22.00;14.60;;;;;;;10.20;73.59;97647.73;234179;216;138908;-59
2023/11/11 00:28:25;;;;;;;21.10;14.00;;;;;;;10.22;73.50;97643.33;234350;216;137555;-59
2023/11/11 00:33:28;;;;;;;21.30;15.20;;;;;;;10.15;73.34;97643.31;234216;216;149439;-60
2023/11/11 00:38:32;;;;;;;21.00;13.10;;;;;;;10.09;73.45;97646.31;234275;216;138871;-59
2023/11/11 00:43:35;;;;;;;18.90;13.70;;;;;;;10.05;73.74;97645.58;234215;215;138568;-59
2023/11/11 00:48:41;;;;;;;22.40;14.80;;;;;;;10.07;74.02;97646.64;233883;215;149459;-59
2023/11/11 00:53:44;;;;;;;19.10;13.40;;;;;;;10.11;73.96;97646.66;234014;216;139291;-59
2023/11/11 00:58:48;;;;;;;19.90;14.00;;;;;;;10.13;73.87;97648.28;234319;213;138646;-58
2023/11/11 01:03:51;;;;;;;22.80;14.60;;;;;;;10.12;74.01;97651.35;234240;215;149286;-60
2023/11/11 01:08:55;;;;;;;21.10;14.20;;;;;;;10.08;74.25;97644.56;234227;216;139293;-57
2023/11/11 01:13:58;;;;;;;20.40;14.60;;;;;;;10.05;74.52;97645.08;234159;215;138302;-58
2023/11/11 01:19:03;;;;;;;18.70;13.40;;;;;;;10.00;74.67;97643.02;234259;216;149415;-58
2023/11/11 01:24:06;;;;;;;21.40;14.40;;;;;;;10.02;74.99;97642.30;234118;215;139097;-57
2023/11/11 01:29:10;;;;;;;22.50;13.80;;;;;;;10.07;74.77;97644.54;234370;215;138686;-58
2023/11/11 01:34:14;;;;;;;20.00;14.00;;;;;;;10.11;74.87;97640.68;234212;214;149103;-59
2023/11/11 01:39:17;;;;;;;20.20;14.70;;;;;;;10.15;74.90;97635.34;234190;216;139332;-58
2023/11/11 01:44:20;;;;;;;21.90;14.40;;;;;;;10.16;74.88;97625.00;234327;216;137458;-57
2023/11/11 01:49:24;;;;;;;21.70;14.60;;;;;;;10.15;74.88;97623.59;234215;216;150784;-57
2023/11/11 01:54:28;;;;;;;20.90;14.40;;;;;;;10.17;75.08;97619.96;234140;214;138907;-56
2023/11/11 01:59:34;;;;;;;17.70;12.70;;;;;;;10.18;75.04;97612.95;234273;216;138650;-58
2023/11/11 02:04:38;;;;;;;17.80;12.50;;;;;;;10.21;75.10;97607.94;234427;215;149166;-59
2023/11/11 02:09:42;;;;;;;17.80;13.20;;;;;;;10.28;75.12;97603.29;233941;216;139331;-57
2023/11/11 02:14:45;;;;;;;17.40;13.70;;;;;;;10.34;75.02;97601.15;234237;216;138639;-58
2023/11/11 02:19:49;;;;;;;18.90;12.90;;;;;;;10.38;75.03;97594.96;234202;216;149297;-58
2023/11/11 02:24:56;;;;;;;17.70;12.00;;;;;;;10.38;74.96;97594.67;234157;215;139283;-58
2023/11/11 02:30:02;;;;;;;15.30;11.10;;;;;;;10.35;74.87;97590.80;234273;216;139464;-58
2023/11/11 02:35:05;;;;;;;;;;;;;;;10.32;74.80;97592.13;234167;217;150814;-58
2023/11/11 02:40:12;;;;;;;15.00;10.80;;;;;;;10.25;75.14;97588.06;234264;216;139452;-58
2023/11/11 02:45:16;;;;;;;15.00;10.10;;;;;;;10.20;75.28;97580.20;234196;216;137878;-58
2023/11/11 02:50:20;;;;;;;14.20;9.90;;;;;;;10.22;75.43;97570.66;234228;214;149049;-58
2023/11/11 02:55:23;;;;;;;15.90;11.00;;;;;;;10.24;75.44;97567.08;234188;215;139761;-58
2023/11/11 03:00:28;;;;;;;13.70;10.20;;;;;;;10.27;75.45;97561.88;234170;216;137604;-58
2023/11/11 03:05:31;;;;;;;15.10;10.40;;;;;;;10.30;75.24;97555.61;234160;215;149295;-57
2023/11/11 03:10:34;;;;;;;15.30;9.80;;;;;;;10.27;75.13;97551.98;234284;216;138796;-57
2023/11/11 03:15:37;;;;;;;13.30;10.50;;;;;;;10.23;75.28;97554.56;234247;213;142113;-57
2023/11/11 03:20:41;;;;;;;16.70;10.90;;;;;;;10.19;75.42;97554.70;234219;216;149195;-57
2023/11/11 03:25:44;;;;;;;12.30;10.00;;;;;;;10.16;75.57;97555.32;234140;215;138936;-57
2023/11/11 03:30:48;;;;;;;12.40;9.10;;;;;;;10.15;75.68;97554.84;234176;214;138248;-57
2023/11/11 03:35:51;;;;;;;12.40;9.80;;;;;;;10.19;75.76;97555.66;234284;213;149853;-56
2023/11/11 03:40:56;;;;;;;13.40;10.00;;;;;;;10.25;75.77;97550.05;234251;216;138850;-55
2023/11/11 03:46:00;;;;;;;14.70;10.00;;;;;;;10.31;75.73;97539.42;234281;212;137543;-58
2023/11/11 03:51:03;;;;;;;12.90;9.50;;;;;;;10.31;75.59;97536.73;234261;216;149931;-58
2023/11/11 03:56:07;;;;;;;12.20;9.00;;;;;;;10.29;75.43;97538.90;234196;216;151108;-58
2023/11/11 04:01:10;;;;;;;11.50;8.40;;;;;;;10.29;75.27;97533.55;234231;216;137339;-57
2023/11/11 04:06:14;;;;;;;9.20;7.50;;;;;;;10.23;75.29;97528.70;234177;215;149514;-58
2023/11/11 04:11:17;;;;;;;8.30;6.70;;;;;;;10.20;75.31;97531.95;234257;215;140473;-58
2023/11/11 04:16:21;;;;;;;10.70;8.00;;;;;;;10.22;75.32;97528.80;234362;214;137699;-58
2023/11/11 04:21:25;;;;;;;10.50;8.30;;;;;;;10.24;75.32;97525.59;234289;216;149373;-58
2023/11/11 04:26:28;;;;;;;11.00;8.00;;;;;;;10.19;75.26;97518.55;234215;215;138995;-58
2023/11/11 04:31:31;;;;;;;12.10;9.30;;;;;;;10.16;75.46;97512.23;234277;215;138087;-58
2023/11/11 04:36:36;;;;;;;12.60;9.50;;;;;;;10.14;75.69;97507.63;234178;214;150236;-58
2023/11/11 04:41:39;;;;;;;12.60;9.30;;;;;;;10.11;75.76;97506.30;234242;216;138585;-58
2023/11/11 04:46:43;;;;;;;11.40;9.00;;;;;;;10.07;75.90;97505.06;234301;216;137775;-58
2023/11/11 04:51:46;;;;;;;11.80;8.10;;;;;;;10.08;75.97;97506.36;234262;215;150741;-56
2023/11/11 04:56:49;;;;;;;10.50;8.70;;;;;;;10.11;75.83;97505.62;234035;215;138785;-58
2023/11/11 05:01:53;;;;;;;10.30;8.70;;;;;;;10.18;75.88;97504.99;234274;216;138954;-59
2023/11/11 05:06:57;;;;;;;13.20;8.70;;;;;;;10.25;75.62;97512.39;234142;216;149798;-58
2023/11/11 05:12:02;;;;;;;11.10;9.10;;;;;;;10.27;75.45;97516.33;234289;216;139279;-56
2023/11/11 05:17:07;;;;;;;10.30;7.70;;;;;;;10.25;75.33;97519.50;234339;215;137749;-58
2023/11/11 05:22:10;;;;;;;9.20;7.60;;;;;;;10.20;75.18;97519.05;234157;216;149659;-56
2023/11/11 05:27:14;;;;;;;11.30;7.20;;;;;;;10.15;75.36;97516.57;234188;215;140425;-56
2023/11/11 05:32:18;;;;;;;8.50;6.60;;;;;;;10.15;75.31;97515.36;234195;209;138874;-58
2023/11/11 05:37:21;;;;;;;9.40;7.10;;;;;;;10.15;75.34;97516.95;234225;216;150009;-59
2023/11/11 05:42:24;;;;;;;8.80;6.80;;;;;;;10.23;75.22;97517.17;234157;216;138882;-59
2023/11/11 05:47:28;;;;;;;8.10;6.70;;;;;;;10.23;75.12;97515.57;234215;216;137916;-59
2023/11/11 05:52:31;;;;;;;10.10;7.70;;;;;;;10.16;75.25;97517.35;234318;216;149404;-59
2023/11/11 05:57:35;;;;;;;10.30;8.00;;;;;;;10.10;75.37;97517.93;234217;216;139279;-59
2023/11/11 06:02:39;;;;;;;11.30;8.50;;;;;;;10.06;75.64;97525.23;234186;215;138260;-59
2023/11/11 06:07:43;;;;;;;9.90;7.50;;;;;;;10.06;75.70;97531.55;234162;213;149393;-59
2023/11/11 06:12:47;;;;;;;9.40;7.40;;;;;;;10.12;75.74;97535.83;234272;216;139988;-59
2023/11/11 06:17:50;;;;;;;11.20;8.30;;;;;;;10.16;75.80;97539.52;234272;216;138655;-59
2023/11/11 06:22:54;;;;;;;11.70;8.90;;;;;;;10.21;75.80;97543.93;234340;215;150095;-59
2023/11/11 06:28:02;;;;;;;12.00;9.40;;;;;;;10.26;75.76;97544.95;234149;216;139198;-58
2023/11/11 06:33:05;;;;;;;11.90;8.40;;;;;;;10.30;75.57;97541.98;234290;215;138377;-59
2023/11/11 06:38:10;;;;;;;10.90;9.10;;;;;;;10.23;75.59;97545.00;234253;216;149440;-58
2023/11/11 06:43:14;;;;;;;10.20;8.70;;;;;;;10.22;75.66;97550.59;234181;216;138819;-57
2023/11/11 06:48:17;;;;;;;10.50;8.00;;;;;;;10.22;75.81;97560.73;234227;216;139489;-59
2023/11/11 06:53:20;;;;;;;11.20;7.90;;;;;;;10.20;75.90;97553.26;234256;214;150418;-58
2023/11/11 06:58:24;;;;;;;6.60;5.50;;;;;;;10.23;75.84;97559.06;234309;215;138932;-48
2023/11/11 07:03:28;;;;;;;66.00;48.60;;;;;;;10.64;78.31;97550.58;234070;214;138239;-57
2023/11/11 07:08:33;;;;;;;11.50;9.60;;;;;;;10.75;75.42;97547.02;234128;215;150115;-59
2023/11/11 07:13:36;;;;;;;13.20;9.60;;;;;;;10.70;75.65;97546.58;234197;213;139480;-58
2023/11/11 07:18:41;;;;;;;150.30;132.50;;;;;;;11.39;78.78;97547.30;234227;214;138222;-61
2023/11/11 07:23:44;;;;;;;30.00;22.80;;;;;;;12.04;76.30;97547.40;234211;214;149289;-60
2023/11/11 07:28:48;;;;;;;13.50;8.50;;;;;;;12.31;73.21;97552.09;234257;216;139018;-58
2023/11/11 07:33:52;;;;;;;8.80;7.20;;;;;;;11.92;71.08;97557.33;234157;215;137848;-59
2023/11/11 07:38:56;;;;;;;9.80;7.10;;;;;;;11.51;71.19;97557.32;234222;208;149952;-59
2023/11/11 07:44:04;;;;;;;8.30;6.80;;;;;;;11.20;71.62;97554.70;234189;215;138781;-59
2023/11/11 07:49:12;;;;;;;7.80;6.30;;;;;;;11.03;72.04;97558.18;234164;208;137505;-59
2023/11/11 07:54:16;;;;;;;8.20;6.60;;;;;;;10.87;72.51;97558.67;234204;213;149959;-58
2023/11/11 07:59:19;;;;;;;8.70;6.60;;;;;;;10.72;72.95;97552.24;234199;209;138555;-59
2023/11/11 08:04:24;;;;;;;9.50;7.20;;;;;;;10.61;73.25;97546.54;234381;214;137204;-58
2023/11/11 08:09:27;;;;;;;82.90;64.90;;;;;;;10.55;73.80;97549.17;234183;215;149201;-59
2023/11/11 08:14:31;;;;;;;17.00;12.00;;;;;;;10.61;74.26;97547.81;234192;213;139283;-58
2023/11/11 08:19:34;;;;;;;12.50;9.40;;;;;;;10.65;73.90;97542.66;234300;215;139143;-58
2023/11/11 08:24:37;;;;;;;13.30;10.20;;;;;;;10.67;73.86;97536.90;234211;215;149872;-58
2023/11/11 08:29:40;;;;;;;13.30;10.40;;;;;;;10.64;74.02;97536.86;234199;215;138866;-58
2023/11/11 08:34:44;;;;;;;40.70;33.10;;;;;;;10.62;74.17;97534.75;234343;212;137736;-62
2023/11/11 08:39:47;;;;;;;26.80;19.50;;;;;;;10.70;75.05;97532.30;234190;212;149152;-60
2023/11/11 08:44:51;;;;;;;17.50;13.90;;;;;;;10.99;74.29;97525.72;234212;216;139205;-60
2023/11/11 08:49:55;;;;;;;19.00;13.70;;;;;;;10.97;73.81;97526.80;234249;215;138050;-57
2023/11/11 08:54:58;;;;;;;19.00;14.50;;;;;;;10.99;73.84;97522.35;234252;214;149853;-60
2023/11/11 09:00:09;;;;;;;19.60;15.20;;;;;;;11.03;73.65;97525.70;234355;215;140147;-59
2023/11/11 09:05:13;;;;;;;21.00;15.10;;;;;;;11.01;73.71;97527.65;234377;215;139778;-60
2023/11/11 09:10:16;;;;;;;20.50;15.50;;;;;;;10.98;73.92;97527.92;234266;208;149939;-60
2023/11/11 09:15:20;;;;;;;19.90;15.50;;;;;;;10.95;73.95;97535.82;234160;215;140599;-62
2023/11/11 09:20:23;;;;;;;314.30;249.60;;;;;;;10.95;74.21;97537.06;234245;212;137660;-62
2023/11/11 09:25:26;;;;;;;34.00;26.80;;;;;;;11.03;74.78;97541.16;234259;213;150760;-62
2023/11/11 09:30:30;;;;;;;22.00;14.90;;;;;;;11.13;75.11;97538.65;234277;215;139628;-63
2023/11/11 09:35:33;;;;;;;22.90;16.60;;;;;;;11.18;74.37;97533.28;234302;215;138563;-63
2023/11/11 09:40:37;;;;;;;179.40;140.50;;;;;;;11.23;74.23;97538.34;234313;214;150778;-61
2023/11/11 09:45:41;;;;;;;27.10;18.50;;;;;;;11.28;74.02;97533.48;234190;213;139906;-60
2023/11/11 09:50:45;;;;;;;221.00;159.10;;;;;;;11.25;73.80;97530.16;234170;215;138458;-61
2023/11/11 09:55:48;;;;;;;30.10;19.90;;;;;;;11.50;75.96;97523.83;234193;215;149147;-61
2023/11/11 10:00:52;;;;;;;23.80;17.30;;;;;;;11.63;73.35;97516.45;234200;215;138900;-60
2023/11/11 10:05:55;;;;;;;26.60;18.70;;;;;;;11.47;73.26;97518.03;234120;208;139557;-61
2023/11/11 10:10:59;;;;;;;25.60;18.60;;;;;;;11.43;73.50;97511.52;234333;215;150585;-60
2023/11/11 10:16:13;;;;;;;28.20;18.70;;;;;;;11.38;73.54;97508.08;234267;212;140366;-61
2023/11/11 10:21:20;;;;;;;35.30;25.60;;;;;;;11.30;73.84;97511.09;234338;214;138464;-61
2023/11/11 10:26:23;;;;;;;34.60;22.10;;;;;;;11.30;73.94;97507.33;234231;214;150486;-62
2023/11/11 10:31:35;;;;;;;27.30;17.20;;;;;;;11.32;73.85;97502.51;234196;214;138584;-63
2023/11/11 10:36:44;;;;;;;27.40;19.10;;;;;;;11.35;73.84;97500.10;234191;213;138648;-64
2023/11/11 10:41:47;;;;;;;30.30;21.90;;;;;;;11.40;73.93;97485.48;234236;215;149325;-61
2023/11/11 10:46:50;;;;;;;24.60;18.70;;;;;;;11.50;73.80;97477.80;234367;215;140094;-61
2023/11/11 10:51:59;;;;;;;27.30;19.90;;;;;;;11.49;73.15;97474.71;234014;208;138516;-61
2023/11/11 10:57:04;;;;;;;30.00;19.90;;;;;;;11.52;72.79;97469.48;234231;214;149288;-63
2023/11/11 11:02:10;;;;;;;27.00;20.00;;;;;;;11.47;72.57;97467.25;234101;213;139541;-62
2023/11/11 11:07:23;;;;;;;29.10;20.80;;;;;;;11.44;72.52;97469.13;234053;214;138349;-62
2023/11/11 11:12:53;;;;;;;29.80;21.30;;;;;;;11.42;72.59;97470.33;234209;213;149371;-61
2023/11/11 11:17:56;;;;;;;30.00;20.60;;;;;;;11.45;72.48;97466.23;234129;212;140901;-63
2023/11/11 11:23:00;;;;;;;33.10;23.00;;;;;;;11.58;72.51;97464.88;234276;212;139514;-62
2023/11/11 11:28:09;;;;;;;31.50;23.60;;;;;;;11.65;72.27;97463.55;234171;213;149457;-62
2023/11/11 11:33:15;;;;;;;34.80;24.90;;;;;;;11.76;76.95;97463.52;234089;213;138616;-56
2023/11/11 11:38:40;;;;;;;89.30;64.30;;;;;;;13.03;76.69;97455.83;234192;215;138701;-60
2023/11/11 11:43:51;;;;;;;40.80;29.50;;;;;;;13.44;75.21;97458.33;234156;214;149451;-55
2023/11/11 11:48:55;;;;;;;32.20;23.60;;;;;;;14.23;71.09;97448.56;234137;212;139366;-57
2023/11/11 11:53:59;;;;;;;33.60;23.60;;;;;;;13.76;67.36;97447.10;234213;213;138324;-60
2023/11/11 11:59:03;;;;;;;36.20;24.90;;;;;;;13.28;70.20;97449.08;234229;209;150016;-55
2023/11/11 12:04:07;;;;;;;31.70;22.20;;;;;;;14.27;72.95;97449.85;234090;215;139940;-60
2023/11/11 12:09:16;;;;;;;30.60;21.30;;;;;;;14.17;66.60;97450.30;234085;215;138780;-63
2023/11/11 12:14:21;;;;;;;30.10;22.60;;;;;;;13.51;66.29;97451.96;234089;214;149198;-61
2023/11/11 12:19:25;;;;;;;30.00;21.40;;;;;;;13.05;67.14;97449.70;234108;214;139844;-59
2023/11/11 12:24:29;;;;;;;29.60;21.30;;;;;;;12.76;67.81;97448.27;234090;208;138413;-61
2023/11/11 12:29:42;;;;;;;32.90;21.30;;;;;;;12.56;67.99;97450.50;234098;214;149922;-61
2023/11/11 12:34:50;;;;;;;26.60;20.90;;;;;;;12.35;68.44;97443.50;234200;209;138405;-61
2023/11/11 12:39:54;;;;;;;31.10;22.80;;;;;;;12.16;68.85;97444.03;234179;214;139460;-61
2023/11/11 12:44:57;;;;;;;32.50;23.80;;;;;;;12.06;69.25;97444.40;234112;213;149852;-61
2023/11/11 12:50:04;;;;;;;31.60;23.70;;;;;;;11.97;69.46;97442.98;234109;214;139149;-61
2023/11/11 12:55:20;;;;;;;112.50;83.30;;;;;;;11.90;69.53;97446.29;234207;209;138665;-62
2023/11/11 13:00:24;;;;;;;35.30;24.30;;;;;;;11.96;72.28;97443.80;233838;213;150606;-59
2023/11/11 13:05:27;;;;;;;35.50;24.50;;;;;;;12.12;70.15;97451.67;234105;213;139724;-57
2023/11/11 13:10:31;;;;;;;41.30;27.20;;;;;;;12.14;69.99;97451.91;234271;214;138405;-59
2023/11/11 13:15:35;;;;;;;36.60;24.20;;;;;;;12.14;69.53;97450.84;234198;214;151036;-59
2023/11/11 13:20:38;;;;;;;37.30;26.20;;;;;;;12.05;69.43;97452.29;234136;213;139966;-58
2023/11/11 13:25:42;;;;;;;33.60;23.30;;;;;;;11.97;69.63;97446.66;234124;214;137786;-60
2023/11/11 13:30:47;;;;;;;35.70;24.10;;;;;;;11.88;69.40;97446.98;234093;215;149319;-59
2023/11/11 13:35:53;;;;;;;34.70;23.80;;;;;;;11.79;69.77;97445.30;234106;213;140807;-60
2023/11/11 13:40:56;;;;;;;;;;;;;;;11.71;69.91;97442.00;234265;208;139175;-59
2023/11/11 13:45:59;;;;;;;38.80;25.80;;;;;;;11.64;70.31;97443.33;234232;213;149215;-59
2023/11/11 13:51:03;;;;;;;35.00;23.00;;;;;;;11.58;70.54;97450.03;234081;213;138874;-60
2023/11/11 13:56:06;;;;;;;37.40;24.20;;;;;;;11.57;70.61;97451.07;234129;213;138413;-60
2023/11/11 14:01:10;;;;;;;36.20;25.20;;;;;;;11.61;70.76;97453.70;234139;213;149426;-60
2023/11/11 14:06:13;;;;;;;39.10;27.20;;;;;;;11.70;70.64;97458.11;234133;214;139791;-61
2023/11/11 14:11:16;;;;;;;34.90;24.60;;;;;;;11.76;70.44;97456.59;234393;213;138887;-60
2023/11/11 14:16:21;;;;;;;38.90;26.40;;;;;;;11.77;70.34;97462.73;234170;213;149273;-59
2023/11/11 14:21:31;;;;;;;40.70;28.30;;;;;;;11.73;70.47;97472.84;234098;212;139428;-61
2023/11/11 14:26:34;;;;;;;41.40;29.70;;;;;;;11.68;70.71;97476.88;234181;215;138317;-61
2023/11/11 14:31:38;;;;;;;42.50;27.90;;;;;;;11.64;71.12;97480.66;233963;213;149420;-59
2023/11/11 14:36:41;;;;;;;43.60;28.30;;;;;;;11.60;71.36;97481.89;234014;213;139805;-59
2023/11/11 14:41:47;;;;;;;216.50;174.30;;;;;;;11.56;71.98;97482.06;234153;213;137903;-61
2023/11/11 14:46:51;;;;;;;41.40;27.80;;;;;;;11.62;72.20;97481.67;234286;209;149987;-62
2023/11/11 14:51:55;;;;;;;38.90;26.10;;;;;;;11.66;72.14;97485.93;234144;213;140292;-60
2023/11/11 14:56:58;;;;;;;37.70;26.70;;;;;;;11.68;72.11;97487.42;234127;213;138257;-59
2023/11/11 15:02:01;;;;;;;37.40;26.70;;;;;;;11.66;72.18;97487.91;234121;209;149629;-59
2023/11/11 15:07:05;;;;;;;37.50;27.70;;;;;;;11.67;72.30;97485.73;234318;212;139419;-63
2023/11/11 15:12:08;;;;;;;146.60;98.10;;;;;;;11.62;72.67;97486.10;234294;213;151688;-62
2023/11/11 15:17:11;;;;;;;43.20;30.20;;;;;;;11.64;73.01;97487.77;234441;213;149578;-63
2023/11/11 15:22:16;;;;;;;38.50;27.00;;;;;;;11.62;72.50;97495.00;234208;212;138877;-62
2023/11/11 15:27:20;;;;;;;45.20;31.60;;;;;;;11.58;73.32;97499.95;234296;213;138799;-62
2023/11/11 15:32:23;;;;;;;39.20;24.50;;;;;;;11.57;72.59;97504.84;234156;213;150137;-60
2023/11/11 15:37:27;;;;;;;38.10;26.50;;;;;;;11.54;72.51;97509.74;234170;213;141598;-61
2023/11/11 15:42:31;;;;;;;32.90;24.50;;;;;;;11.51;72.32;97510.92;234035;213;138744;-64
2023/11/11 15:47:34;;;;;;;37.30;24.60;;;;;;;11.47;72.35;97518.04;234140;208;150002;-63
2023/11/11 15:52:37;;;;;;;41.50;27.60;;;;;;;11.50;72.97;97515.45;234264;214;138830;-63
2023/11/11 15:57:41;;;;;;;35.40;24.20;;;;;;;11.51;72.42;97517.88;234122;213;139317;-63
2023/11/11 16:02:44;;;;;;;29.50;19.90;;;;;;;11.39;72.23;97516.29;234125;211;150162;-64
2023/11/11 16:07:47;;;;;;;28.00;19.00;;;;;;;11.29;72.15;97526.23;234098;208;139029;-63
2023/11/11 16:12:51;;;;;;;27.60;19.00;;;;;;;11.20;72.21;97532.59;234115;213;138474;-64
2023/11/11 16:17:54;;;;;;;30.40;19.60;;;;;;;11.15;72.40;97534.09;234052;213;150508;-63
2023/11/11 16:22:59;;;;;;;28.90;19.80;;;;;;;11.14;72.60;97540.52;234265;213;139737;-64
2023/11/11 16:28:03;;;;;;;24.80;17.10;;;;;;;11.15;72.64;97546.67;234113;213;138297;-63
2023/11/11 16:33:06;;;;;;;442.70;347.90;;;;;;;11.09;72.87;97548.61;234107;209;154848;-67
2023/11/11 16:38:10;;;;;;;26.80;19.20;;;;;;;11.11;73.30;97550.76;234169;214;140009;-65
2023/11/11 16:43:13;;;;;;;25.30;17.30;;;;;;;11.05;72.88;97553.54;234120;213;137724;-65
2023/11/11 16:48:17;;;;;;;25.10;17.00;;;;;;;10.96;73.01;97552.44;234090;209;149905;-63
2023/11/11 16:53:21;;;;;;;22.70;16.40;;;;;;;10.88;73.34;97556.81;234192;214;138666;-64
2023/11/11 16:58:25;;;;;;;23.60;15.80;;;;;;;10.86;73.54;97556.29;234246;213;138476;-63
2023/11/11 17:03:31;;;;;;;25.90;17.20;;;;;;;10.89;73.60;97560.45;234107;209;149310;-63
2023/11/11 17:08:39;;;;;;;26.20;18.70;;;;;;;10.91;73.72;97554.66;234156;214;141113;-62
2023/11/11 17:13:42;;;;;;;28.90;19.50;;;;;;;10.89;73.79;97559.71;233874;213;138326;-59
2023/11/11 17:18:46;;;;;;;27.20;19.50;;;;;;;10.88;73.90;97560.21;234086;214;150085;-60
2023/11/11 17:23:49;;;;;;;259.40;196.70;;;;;;;10.83;74.72;97562.74;234107;213;138650;-60
2023/11/11 17:28:54;;;;;;;35.70;23.50;;;;;;;11.10;76.65;97564.48;234285;212;138575;-59
2023/11/11 17:33:57;;;;;;;32.50;23.30;;;;;;;11.13;74.26;97562.08;234092;214;149867;-60
2023/11/11 17:39:01;;;;;;;35.20;24.20;;;;;;;11.05;74.25;97559.61;234099;213;141403;-58
2023/11/11 17:44:07;;;;;;;31.90;22.50;;;;;;;11.02;74.27;97561.42;234100;212;138464;-60
2023/11/11 17:49:12;;;;;;;34.50;23.90;;;;;;;10.99;74.14;97565.83;234062;214;150228;-59
2023/11/11 17:54:16;;;;;;;32.70;23.80;;;;;;;10.91;74.40;97568.49;234143;213;138732;-58
2023/11/11 17:59:19;;;;;;;33.60;23.60;;;;;;;10.84;74.40;97567.80;234283;213;141690;-59
2023/11/11 18:04:26;;;;;;;34.30;22.30;;;;;;;10.79;74.62;97572.86;234156;212;150025;-58
2023/11/11 18:09:30;;;;;;;27.30;20.10;;;;;;;10.75;74.72;97578.90;233965;213;139712;-59
2023/11/11 18:14:33;;;;;;;29.20;21.10;;;;;;;10.75;74.82;97581.25;234053;213;139903;-59
2023/11/11 18:19:38;;;;;;;27.70;20.50;;;;;;;10.77;74.63;97582.44;234071;213;149287;-59
2023/11/11 18:24:41;;;;;;;27.50;19.80;;;;;;;10.81;74.55;97591.86;234107;212;139057;-60
2023/11/11 18:29:44;;;;;;;32.60;21.00;;;;;;;10.80;74.40;97600.12;234068;213;142983;-59
2023/11/11 18:34:47;;;;;;;27.40;19.60;;;;;;;10.79;74.28;97604.44;234187;209;150899;-59
2023/11/11 18:39:52;;;;;;;25.50;18.30;;;;;;;10.78;74.32;97603.84;234014;212;139441;-59
2023/11/11 18:44:55;;;;;;;23.60;17.00;;;;;;;10.74;74.15;97608.65;234085;209;138659;-60
2023/11/11 18:49:59;;;;;;;26.20;17.90;;;;;;;10.64;74.38;97613.34;234057;209;150338;-57
2023/11/11 18:55:29;;;;;;;23.80;16.50;;;;;;;10.61;74.38;97612.34;234045;213;140076;-58
2023/11/11 19:00:32;;;;;;;23.90;16.70;;;;;;;10.60;74.53;97620.42;234087;208;138489;-57
2023/11/11 19:05:36;;;;;;;70.50;56.30;;;;;;;10.57;74.52;97620.49;234130;208;150806;-59
2023/11/11 19:10:39;;;;;;;30.00;21.90;;;;;;;10.70;75.61;97624.16;234263;208;139541;-59
2023/11/11 19:15:42;;;;;;;25.40;17.60;;;;;;;10.81;74.31;97623.23;233952;213;138396;-59
2023/11/11 19:20:46;;;;;;;20.20;14.70;;;;;;;10.68;73.97;97629.50;234154;208;150005;-59
2023/11/11 19:25:49;;;;;;;109.80;82.40;;;;;;;10.64;74.54;97633.81;234256;215;140341;-59
2023/11/11 19:30:53;;;;;;;19.10;13.00;;;;;;;10.75;74.96;97636.40;234251;215;138524;-60
2023/11/11 19:35:56;;;;;;;15.70;10.30;;;;;;;10.68;73.39;97640.90;234205;216;152074;-60
2023/11/11 19:40:59;;;;;;;13.60;9.30;;;;;;;10.56;73.22;97640.64;234256;215;138753;-59
2023/11/11 19:46:03;;;;;;;11.60;9.20;;;;;;;10.45;73.18;97640.17;234198;215;137432;-60
2023/11/11 19:51:06;;;;;;;12.50;8.90;;;;;;;10.40;73.31;97644.84;234270;215;149863;-60
2023/11/11 19:56:10;;;;;;;12.90;8.80;;;;;;;10.30;73.42;97639.08;234185;215;139514;-59
2023/11/11 20:01:14;;;;;;;13.40;8.80;;;;;;;10.20;73.48;97640.64;234273;215;138120;-59
2023/11/11 20:06:18;;;;;;;13.80;9.00;;;;;;;10.10;73.59;97639.45;234042;215;149983;-59
2023/11/11 20:11:23;;;;;;;11.30;7.40;;;;;;;10.01;73.85;97640.40;234287;214;139376;-59
2023/11/11 20:16:26;;;;;;;11.00;7.50;;;;;;;10.00;73.98;97639.64;234349;213;138492;-59
2023/11/11 20:21:31;;;;;;;12.60;7.80;;;;;;;10.03;73.94;97644.50;234180;216;149331;-59
2023/11/11 20:26:34;;;;;;;10.60;7.90;;;;;;;10.04;73.82;97648.12;234089;216;140256;-59
2023/11/11 20:31:37;;;;;;;13.20;8.10;;;;;;;10.01;73.94;97650.02;234182;214;138303;-59
2023/11/11 20:36:46;;;;;;;10.60;7.80;;;;;;;9.94;74.03;97658.52;233793;213;149510;-61
2023/11/11 20:41:50;;;;;;;10.30;8.00;;;;;;;9.87;74.26;97659.23;234155;216;139221;-60
2023/11/11 20:46:53;;;;;;;11.20;7.50;;;;;;;9.87;74.16;97655.71;234389;215;136975;-61
2023/11/11 20:51:58;;;;;;;10.10;6.80;;;;;;;9.88;73.82;97657.80;234163;213;149104;-61
2023/11/11 20:57:02;;;;;;;10.20;6.70;;;;;;;9.81;73.79;97661.20;234045;213;140448;-60
2023/11/11 21:02:05;;;;;;;9.10;6.20;;;;;;;9.80;73.55;97660.95;233895;215;139348;-59
2023/11/11 21:07:09;;;;;;;10.70;7.00;;;;;;;9.77;73.74;97661.14;233947;216;150013;-59
2023/11/11 21:12:13;;;;;;;9.60;6.70;;;;;;;9.80;73.87;97661.76;234247;215;138726;-60
2023/11/11 21:17:16;;;;;;;8.80;6.50;;;;;;;9.77;73.91;97664.87;233928;216;137837;-59
2023/11/11 21:22:19;;;;;;;9.80;6.70;;;;;;;9.68;74.02;97672.27;234276;215;149641;-59
2023/11/11 21:27:22;;;;;;;9.10;6.90;;;;;;;9.60;74.17;97672.78;234229;215;139686;-59
2023/11/11 21:32:26;;;;;;;9.60;6.60;;;;;;;9.53;74.56;97669.41;234245;215;137613;-59
2023/11/11 21:37:30;;;;;;;10.00;6.90;;;;;;;9.52;74.76;97667.27;234266;214;150054;-57
2023/11/11 21:42:33;;;;;;;9.80;6.40;;;;;;;9.59;74.69;97671.66;234204;216;139326;-58
2023/11/11 21:47:36;;;;;;;10.70;7.60;;;;;;;9.62;74.51;97681.98;234233;216;137148;-58
2023/11/11 21:52:40;;;;;;;11.20;7.70;;;;;;;9.60;74.49;97681.23;234341;216;150325;-58
2023/11/11 21:57:43;;;;;;;13.70;8.20;;;;;;;9.59;74.37;97682.77;234252;214;139032;-59
2023/11/11 22:02:46;;;;;;;12.30;8.20;;;;;;;9.57;74.38;97686.52;234332;215;137339;-59
2023/11/11 22:07:50;;;;;;;12.30;8.60;;;;;;;9.53;74.43;97681.70;234268;209;150652;-59
2023/11/11 22:12:53;;;;;;;14.40;10.10;;;;;;;9.46;74.36;97681.17;234182;216;139226;-59
2023/11/11 22:17:57;;;;;;;15.90;9.10;;;;;;;9.41;74.59;97680.12;234143;216;137878;-59
2023/11/11 22:23:00;;;;;;;17.40;10.80;;;;;;;9.43;74.69;97680.52;234389;209;149725;-61
2023/11/11 22:28:04;;;;;;;16.30;11.00;;;;;;;9.49;74.60;97680.06;234198;214;140557;-60
2023/11/11 22:33:07;;;;;;;15.10;10.90;;;;;;;9.50;74.59;97682.11;234146;214;137518;-59
2023/11/11 22:38:11;;;;;;;16.80;12.00;;;;;;;9.47;74.42;97684.80;234124;216;149924;-59
2023/11/11 22:43:14;;;;;;;16.50;12.40;;;;;;;9.44;74.51;97691.42;234153;215;138889;-59
2023/11/11 22:48:18;;;;;;;17.10;12.50;;;;;;;9.40;74.59;97690.48;234155;216;137788;-59
2023/11/11 22:53:21;;;;;;;18.00;12.50;;;;;;;9.40;74.67;97684.69;234303;214;149425;-58
2023/11/11 22:58:25;;;;;;;19.60;12.00;;;;;;;9.37;74.75;97688.23;234318;215;139467;-59
2023/11/11 23:03:29;;;;;;;20.80;12.20;;;;;;;9.38;74.87;97689.42;234196;215;137866;-58
2023/11/11 23:08:33;;;;;;;20.30;14.00;;;;;;;9.40;74.77;97687.27;234192;215;150586;-59
2023/11/11 23:13:36;;;;;;;26.10;15.00;;;;;;;9.44;74.65;97689.25;234148;215;138076;-58